createdAt,value
2022-10-17T00:05:29.816Z,15.33
2022-10-17T00:15:29.954Z,15.09
2022-10-17T00:25:30.142Z,15.21
2022-10-17T00:35:30.272Z,14.86
2022-10-17T00:45:30.483Z,14.42
2022-10-17T00:55:30.640Z,14.75
2022-10-17T01:05:30.846Z,14.56
2022-10-17T01:15:30.990Z,14.04
2022-10-17T01:25:31.187Z,14.54
2022-10-17T01:35:31.322Z,14.60
2022-10-17T01:45:31.663Z,13.95
2022-10-17T01:55:31.704Z,13.54
2022-10-17T02:05:31.902Z,13.29
2022-10-17T02:15:32.167Z,13.29
2022-10-17T02:25:32.256Z,12.88
2022-10-17T02:35:32.414Z,13.11
2022-10-17T02:45:32.717Z,12.99
2022-10-17T02:55:32.768Z,12.67
2022-10-17T03:05:32.973Z,12.45
2022-10-17T03:15:33.106Z,12.56
2022-10-17T03:25:33.286Z,12.81
2022-10-17T03:35:33.435Z,12.38
2022-10-17T03:45:33.626Z,12.66
2022-10-17T03:55:34.028Z,12.54
2022-10-17T04:05:34.000Z,12.56
2022-10-17T04:15:34.137Z,12.41
2022-10-17T04:25:36.653Z,12.16
2022-10-17T04:35:34.453Z,11.70
2022-10-17T04:45:34.637Z,11.46
2022-10-17T04:55:34.790Z,11.62
2022-10-17T05:05:34.980Z,12.13
2022-10-17T05:15:35.115Z,12.19
2022-10-17T05:25:35.294Z,12.19
2022-10-17T05:35:35.422Z,12.29
2022-10-17T05:45:35.603Z,12.05
2022-10-17T05:55:35.749Z,12.29
2022-10-17T06:05:35.939Z,11.97
2022-10-17T06:15:36.080Z,11.67
2022-10-17T06:25:36.257Z,11.71
2022-10-17T06:35:36.645Z,11.86
2022-10-17T06:45:36.612Z,11.96
2022-10-17T06:55:36.769Z,11.99
2022-10-17T07:05:36.979Z,12.19
2022-10-17T07:15:37.110Z,12.45
2022-10-17T07:25:40.046Z,12.79
2022-10-17T07:35:37.481Z,13.22
2022-10-17T07:45:37.664Z,14.56
2022-10-17T07:55:37.815Z,15.46
2022-10-17T08:05:37.960Z,15.81
2022-10-17T08:15:38.121Z,16.01
2022-10-17T08:25:38.311Z,16.25
2022-10-17T08:35:38.440Z,16.59
2022-10-17T08:45:38.620Z,17.29
2022-10-17T08:55:41.360Z,17.89
2022-10-17T09:05:39.967Z,17.62
2022-10-17T09:15:39.240Z,17.54
2022-10-17T09:25:39.332Z,17.78
2022-10-17T09:35:39.665Z,18.27
2022-10-17T09:45:39.628Z,18.67
2022-10-17T09:55:39.803Z,18.92
2022-10-17T10:05:40.180Z,20.00
2022-10-17T10:15:40.179Z,19.91
2022-10-17T10:25:40.292Z,20.81
2022-10-17T10:35:40.553Z,21.54
2022-10-17T10:45:49.003Z,21.63
2022-10-17T10:55:42.020Z,22.17
2022-10-17T11:05:41.090Z,22.56
2022-10-17T11:15:41.348Z,22.60
2022-10-17T11:25:41.341Z,22.92
2022-10-17T11:35:41.502Z,23.24
2022-10-17T11:45:41.690Z,23.46
2022-10-17T11:55:41.841Z,23.95
2022-10-17T12:05:42.044Z,24.50
2022-10-17T12:15:46.475Z,24.39
2022-10-17T12:25:42.401Z,24.79
2022-10-17T12:35:42.654Z,25.15
2022-10-17T12:45:42.741Z,25.39
2022-10-17T12:55:43.214Z,25.53
2022-10-17T13:05:43.211Z,25.83
2022-10-17T13:15:43.262Z,25.87
2022-10-17T13:25:43.449Z,25.97
2022-10-17T13:45:44.784Z,26.12
2022-10-17T13:55:43.930Z,25.99
2022-10-17T14:05:44.131Z,26.29
2022-10-17T14:15:44.513Z,26.25
2022-10-17T14:25:44.505Z,26.50
2022-10-17T14:35:44.660Z,26.12
2022-10-17T14:45:45.087Z,25.99
2022-10-17T14:55:45.056Z,25.80
2022-10-17T15:05:45.310Z,25.15
2022-10-17T15:15:45.464Z,24.02
2022-10-17T15:25:45.865Z,23.27
2022-10-17T15:35:45.833Z,22.25
2022-10-17T15:45:46.028Z,21.51
2022-10-17T15:55:46.175Z,20.96
2022-10-17T16:05:46.384Z,20.49
2022-10-17T16:15:46.621Z,20.03
2022-10-17T16:25:46.703Z,19.57
2022-10-17T16:35:46.845Z,18.91
2022-10-17T16:45:47.186Z,18.39
2022-10-17T16:55:47.142Z,18.04
2022-10-17T17:05:47.416Z,17.78
2022-10-17T17:15:47.450Z,17.76
2022-10-17T17:25:47.669Z,17.51
2022-10-17T17:35:47.820Z,17.36
2022-10-17T17:45:48.018Z,17.57
2022-10-17T17:55:48.182Z,17.62
2022-10-17T18:05:48.386Z,17.32
2022-10-17T18:15:48.728Z,16.80
2022-10-17T18:25:48.879Z,16.31
2022-10-17T18:35:48.906Z,16.03
2022-10-17T18:45:48.988Z,16.35
2022-10-17T18:55:49.135Z,15.92
2022-10-17T19:05:49.533Z,16.23
2022-10-17T19:15:49.450Z,15.85
2022-10-17T19:25:49.784Z,15.31
2022-10-17T19:35:49.824Z,15.26
2022-10-17T19:45:50.017Z,15.08
2022-10-17T19:55:50.158Z,14.80
2022-10-17T20:05:50.357Z,14.74
2022-10-17T20:15:50.492Z,14.61
2022-10-17T20:26:01.117Z,15.06
2022-10-17T20:35:51.824Z,14.60
2022-10-17T20:45:52.110Z,14.53
2022-10-17T20:55:51.131Z,14.72
2022-10-17T21:05:51.341Z,14.75
2022-10-17T21:15:51.483Z,14.67
2022-10-17T21:25:51.885Z,14.44
2022-10-17T21:35:52.060Z,14.24
2022-10-17T21:45:52.139Z,14.19
2022-10-17T21:55:52.188Z,14.07
2022-10-17T22:06:02.279Z,13.83
2022-10-17T22:15:53.548Z,13.65
2022-10-17T22:25:52.736Z,13.41
2022-10-17T22:35:52.881Z,13.36
2022-10-17T22:45:53.085Z,13.27
2022-10-17T22:55:53.225Z,13.55
2022-10-17T23:05:53.430Z,13.59
2022-10-17T23:15:53.551Z,13.98
2022-10-17T23:25:53.730Z,13.74
2022-10-17T23:35:53.865Z,13.87
2022-10-17T23:45:54.046Z,13.40
2022-10-17T23:55:54.199Z,13.09
